sensor_id;sensor_type;location;lat;lon;timestamp;P1;durP1;ratioP1;P2;durP2;ratioP2
46318;SDS011;32042;50.916;2.926;2022-09-09T00:02:01;1.88;;;1.15;;
46318;SDS011;32042;50.916;2.926;2022-09-09T00:07:04;2.90;;;1.30;;
46318;SDS011;32042;50.916;2.926;2022-09-09T00:15:30;3.63;;;1.40;;
46318;SDS011;32042;50.916;2.926;2022-09-09T00:21:07;4.50;;;1.63;;
46318;SDS011;32042;50.916;2.926;2022-09-09T00:23:38;4.50;;;1.10;;
46318;SDS011;32042;50.916;2.926;2022-09-09T00:31:28;2.93;;;1.10;;
46318;SDS011;32042;50.916;2.926;2022-09-09T00:33:58;4.82;;;1.08;;
46318;SDS011;32042;50.916;2.926;2022-09-09T00:36:38;3.43;;;1.17;;
46318;SDS011;32042;50.916;2.926;2022-09-09T00:39:05;5.68;;;1.67;;
46318;SDS011;32042;50.916;2.926;2022-09-09T00:42:11;7.80;;;1.23;;
46318;SDS011;32042;50.916;2.926;2022-09-09T00:44:46;3.00;;;0.95;;
46318;SDS011;32042;50.916;2.926;2022-09-09T00:47:44;3.38;;;1.30;;
46318;SDS011;32042;50.916;2.926;2022-09-09T00:58:13;3.70;;;1.20;;
46318;SDS011;32042;50.916;2.926;2022-09-09T01:06:13;4.33;;;1.20;;
46318;SDS011;32042;50.916;2.926;2022-09-09T01:11:26;3.17;;;1.10;;
46318;SDS011;32042;50.916;2.926;2022-09-09T01:14:01;4.87;;;1.30;;
46318;SDS011;32042;50.916;2.926;2022-09-09T01:16:35;4.90;;;1.50;;
46318;SDS011;32042;50.916;2.926;2022-09-09T01:19:01;3.57;;;1.40;;
46318;SDS011;32042;50.916;2.926;2022-09-09T01:21:55;3.00;;;1.30;;
46318;SDS011;32042;50.916;2.926;2022-09-09T01:24:31;2.17;;;1.30;;
46318;SDS011;32042;50.916;2.926;2022-09-09T01:27:10;7.57;;;1.40;;
46318;SDS011;32042;50.916;2.926;2022-09-09T01:29:37;5.30;;;1.20;;
46318;SDS011;32042;50.916;2.926;2022-09-09T01:35:19;2.83;;;1.30;;
46318;SDS011;32042;50.916;2.926;2022-09-09T01:37:48;2.77;;;1.37;;
46318;SDS011;32042;50.916;2.926;2022-09-09T01:40:14;9.10;;;1.70;;
46318;SDS011;32042;50.916;2.926;2022-09-09T01:42:40;3.10;;;1.30;;
46318;SDS011;32042;50.916;2.926;2022-09-09T01:45:06;3.43;;;1.50;;
46318;SDS011;32042;50.916;2.926;2022-09-09T01:47:32;6.33;;;1.37;;
46318;SDS011;32042;50.916;2.926;2022-09-09T01:49:58;9.17;;;1.50;;
46318;SDS011;32042;50.916;2.926;2022-09-09T01:52:24;4.68;;;1.42;;
46318;SDS011;32042;50.916;2.926;2022-09-09T01:54:50;5.00;;;1.15;;
46318;SDS011;32042;50.916;2.926;2022-09-09T01:57:31;3.20;;;1.37;;
46318;SDS011;32042;50.916;2.926;2022-09-09T02:00:04;4.93;;;1.50;;
46318;SDS011;32042;50.916;2.926;2022-09-09T02:02:40;6.17;;;1.60;;
46318;SDS011;32042;50.916;2.926;2022-09-09T02:05:30;3.13;;;1.30;;
46318;SDS011;32042;50.916;2.926;2022-09-09T02:10:37;8.40;;;1.50;;
46318;SDS011;32042;50.916;2.926;2022-09-09T02:13:15;4.97;;;1.60;;
46318;SDS011;32042;50.916;2.926;2022-09-09T02:15:48;5.47;;;1.70;;
46318;SDS011;32042;50.916;2.926;2022-09-09T02:18:18;8.27;;;1.63;;
46318;SDS011;32042;50.916;2.926;2022-09-09T02:20:49;6.22;;;1.58;;
46318;SDS011;32042;50.916;2.926;2022-09-09T02:23:16;5.57;;;1.13;;
46318;SDS011;32042;50.916;2.926;2022-09-09T02:25:44;8.80;;;1.37;;
46318;SDS011;32042;50.916;2.926;2022-09-09T02:28:11;9.07;;;1.58;;
46318;SDS011;32042;50.916;2.926;2022-09-09T02:30:40;8.43;;;1.63;;
46318;SDS011;32042;50.916;2.926;2022-09-09T02:33:07;7.83;;;1.57;;
46318;SDS011;32042;50.916;2.926;2022-09-09T02:35:38;6.50;;;1.80;;
46318;SDS011;32042;50.916;2.926;2022-09-09T02:38:10;5.33;;;1.33;;
46318;SDS011;32042;50.916;2.926;2022-09-09T02:40:39;12.27;;;1.67;;
46318;SDS011;32042;50.916;2.926;2022-09-09T02:43:06;6.07;;;1.35;;
46318;SDS011;32042;50.916;2.926;2022-09-09T02:45:42;8.37;;;1.40;;
46318;SDS011;32042;50.916;2.926;2022-09-09T02:51:24;9.82;;;1.95;;
46318;SDS011;32042;50.916;2.926;2022-09-09T02:54:15;5.87;;;1.40;;
46318;SDS011;32042;50.916;2.926;2022-09-09T02:56:51;6.47;;;1.70;;
46318;SDS011;32042;50.916;2.926;2022-09-09T02:59:21;5.20;;;1.30;;
46318;SDS011;32042;50.916;2.926;2022-09-09T03:01:47;7.70;;;2.13;;
46318;SDS011;32042;50.916;2.926;2022-09-09T03:04:13;7.53;;;1.83;;
46318;SDS011;32042;50.916;2.926;2022-09-09T03:06:39;9.37;;;1.67;;
46318;SDS011;32042;50.916;2.926;2022-09-09T03:09:05;5.28;;;1.77;;
46318;SDS011;32042;50.916;2.926;2022-09-09T03:11:30;5.40;;;1.70;;
46318;SDS011;32042;50.916;2.926;2022-09-09T03:13:56;6.78;;;1.40;;
46318;SDS011;32042;50.916;2.926;2022-09-09T03:16:22;6.90;;;1.70;;
46318;SDS011;32042;50.916;2.926;2022-09-09T03:18:48;6.13;;;1.90;;
46318;SDS011;32042;50.916;2.926;2022-09-09T03:21:14;4.85;;;1.73;;
46318;SDS011;32042;50.916;2.926;2022-09-09T03:23:40;7.30;;;1.80;;
46318;SDS011;32042;50.916;2.926;2022-09-09T03:26:06;8.53;;;2.13;;
46318;SDS011;32042;50.916;2.926;2022-09-09T03:28:32;7.07;;;1.50;;
46318;SDS011;32042;50.916;2.926;2022-09-09T03:31:01;8.23;;;1.70;;
46318;SDS011;32042;50.916;2.926;2022-09-09T03:33:29;6.73;;;1.63;;
46318;SDS011;32042;50.916;2.926;2022-09-09T03:35:55;10.00;;;2.47;;
46318;SDS011;32042;50.916;2.926;2022-09-09T03:38:24;6.53;;;2.27;;
46318;SDS011;32042;50.916;2.926;2022-09-09T03:40:54;7.40;;;2.00;;
46318;SDS011;32042;50.916;2.926;2022-09-09T03:43:21;10.67;;;2.20;;
46318;SDS011;32042;50.916;2.926;2022-09-09T03:45:47;7.20;;;1.73;;
46318;SDS011;32042;50.916;2.926;2022-09-09T03:48:13;9.75;;;1.75;;
46318;SDS011;32042;50.916;2.926;2022-09-09T03:50:50;7.23;;;2.10;;
46318;SDS011;32042;50.916;2.926;2022-09-09T03:53:17;7.90;;;2.30;;
46318;SDS011;32042;50.916;2.926;2022-09-09T03:55:45;5.63;;;1.80;;
46318;SDS011;32042;50.916;2.926;2022-09-09T03:58:17;9.77;;;1.60;;
46318;SDS011;32042;50.916;2.926;2022-09-09T04:03:22;9.63;;;2.20;;
46318;SDS011;32042;50.916;2.926;2022-09-09T04:05:49;5.17;;;2.00;;
46318;SDS011;32042;50.916;2.926;2022-09-09T04:08:16;10.90;;;2.00;;
46318;SDS011;32042;50.916;2.926;2022-09-09T04:10:44;9.30;;;1.70;;
46318;SDS011;32042;50.916;2.926;2022-09-09T04:13:11;6.93;;;2.17;;
46318;SDS011;32042;50.916;2.926;2022-09-09T04:15:40;6.78;;;1.65;;
46318;SDS011;32042;50.916;2.926;2022-09-09T04:18:06;5.35;;;1.48;;
46318;SDS011;32042;50.916;2.926;2022-09-09T04:20:32;7.80;;;1.70;;
46318;SDS011;32042;50.916;2.926;2022-09-09T04:22:58;8.40;;;2.43;;
46318;SDS011;32042;50.916;2.926;2022-09-09T04:25:24;7.47;;;2.17;;
46318;SDS011;32042;50.916;2.926;2022-09-09T04:27:53;7.07;;;2.20;;
46318;SDS011;32042;50.916;2.926;2022-09-09T04:30:20;8.20;;;1.83;;
46318;SDS011;32042;50.916;2.926;2022-09-09T04:32:46;10.50;;;2.27;;
46318;SDS011;32042;50.916;2.926;2022-09-09T04:35:12;9.67;;;2.33;;
46318;SDS011;32042;50.916;2.926;2022-09-09T04:37:37;11.95;;;2.20;;
46318;SDS011;32042;50.916;2.926;2022-09-09T04:40:03;9.13;;;2.53;;
46318;SDS011;32042;50.916;2.926;2022-09-09T04:42:29;8.00;;;2.43;;
46318;SDS011;32042;50.916;2.926;2022-09-09T04:44:55;8.30;;;2.23;;
46318;SDS011;32042;50.916;2.926;2022-09-09T04:47:21;9.13;;;2.23;;
46318;SDS011;32042;50.916;2.926;2022-09-09T04:49:47;7.43;;;2.07;;
46318;SDS011;32042;50.916;2.926;2022-09-09T04:52:12;8.63;;;2.20;;
46318;SDS011;32042;50.916;2.926;2022-09-09T04:54:38;5.57;;;1.97;;
46318;SDS011;32042;50.916;2.926;2022-09-09T04:57:04;11.90;;;2.10;;
46318;SDS011;32042;50.916;2.926;2022-09-09T04:59:30;8.10;;;1.80;;
46318;SDS011;32042;50.916;2.926;2022-09-09T05:01:55;7.00;;;1.57;;
46318;SDS011;32042;50.916;2.926;2022-09-09T05:04:21;6.47;;;1.90;;
46318;SDS011;32042;50.916;2.926;2022-09-09T05:06:47;7.57;;;2.27;;
46318;SDS011;32042;50.916;2.926;2022-09-09T05:09:13;4.73;;;1.90;;
46318;SDS011;32042;50.916;2.926;2022-09-09T05:11:38;6.73;;;1.93;;
46318;SDS011;32042;50.916;2.926;2022-09-09T05:14:04;9.10;;;2.63;;
46318;SDS011;32042;50.916;2.926;2022-09-09T05:16:30;14.30;;;2.30;;
46318;SDS011;32042;50.916;2.926;2022-09-09T05:18:56;6.60;;;2.00;;
46318;SDS011;32042;50.916;2.926;2022-09-09T05:21:22;12.47;;;2.37;;
46318;SDS011;32042;50.916;2.926;2022-09-09T05:23:51;8.80;;;2.27;;
46318;SDS011;32042;50.916;2.926;2022-09-09T05:26:18;11.20;;;2.17;;
46318;SDS011;32042;50.916;2.926;2022-09-09T05:28:46;8.87;;;2.67;;
46318;SDS011;32042;50.916;2.926;2022-09-09T05:31:13;7.17;;;2.10;;
46318;SDS011;32042;50.916;2.926;2022-09-09T05:33:40;8.70;;;2.23;;
46318;SDS011;32042;50.916;2.926;2022-09-09T05:36:09;7.00;;;1.90;;
46318;SDS011;32042;50.916;2.926;2022-09-09T05:38:38;8.40;;;2.07;;
46318;SDS011;32042;50.916;2.926;2022-09-09T05:41:05;7.03;;;2.20;;
46318;SDS011;32042;50.916;2.926;2022-09-09T05:43:32;7.00;;;2.20;;
46318;SDS011;32042;50.916;2.926;2022-09-09T05:45:59;6.93;;;2.10;;
46318;SDS011;32042;50.916;2.926;2022-09-09T05:48:29;7.50;;;2.23;;
46318;SDS011;32042;50.916;2.926;2022-09-09T05:51:00;9.63;;;2.23;;
46318;SDS011;32042;50.916;2.926;2022-09-09T05:53:27;5.63;;;2.07;;
46318;SDS011;32042;50.916;2.926;2022-09-09T05:56:00;17.87;;;2.40;;
46318;SDS011;32042;50.916;2.926;2022-09-09T05:58:33;11.00;;;2.63;;
46318;SDS011;32042;50.916;2.926;2022-09-09T06:01:07;6.73;;;2.30;;
46318;SDS011;32042;50.916;2.926;2022-09-09T06:03:35;4.97;;;2.17;;
46318;SDS011;32042;50.916;2.926;2022-09-09T06:06:03;8.07;;;1.97;;
46318;SDS011;32042;50.916;2.926;2022-09-09T06:08:31;9.13;;;2.83;;
46318;SDS011;32042;50.916;2.926;2022-09-09T06:11:01;15.47;;;2.73;;
46318;SDS011;32042;50.916;2.926;2022-09-09T06:13:28;10.60;;;2.20;;
46318;SDS011;32042;50.916;2.926;2022-09-09T06:15:55;10.57;;;2.40;;
46318;SDS011;32042;50.916;2.926;2022-09-09T06:18:21;12.48;;;2.45;;
46318;SDS011;32042;50.916;2.926;2022-09-09T06:21:02;8.70;;;1.90;;
46318;SDS011;32042;50.916;2.926;2022-09-09T06:23:30;6.00;;;1.97;;
46318;SDS011;32042;50.916;2.926;2022-09-09T06:26:12;7.67;;;2.00;;
46318;SDS011;32042;50.916;2.926;2022-09-09T06:28:43;6.53;;;2.00;;
46318;SDS011;32042;50.916;2.926;2022-09-09T06:31:13;10.00;;;2.37;;
46318;SDS011;32042;50.916;2.926;2022-09-09T06:33:46;9.77;;;1.80;;
46318;SDS011;32042;50.916;2.926;2022-09-09T06:38:43;9.40;;;2.57;;
46318;SDS011;32042;50.916;2.926;2022-09-09T06:41:09;7.20;;;2.33;;
46318;SDS011;32042;50.916;2.926;2022-09-09T06:43:37;8.37;;;2.37;;
46318;SDS011;32042;50.916;2.926;2022-09-09T06:46:10;11.83;;;2.40;;
46318;SDS011;32042;50.916;2.926;2022-09-09T06:48:41;6.70;;;2.17;;
46318;SDS011;32042;50.916;2.926;2022-09-09T06:51:10;7.23;;;2.10;;
46318;SDS011;32042;50.916;2.926;2022-09-09T06:53:36;6.50;;;2.17;;
46318;SDS011;32042;50.916;2.926;2022-09-09T06:58:35;7.73;;;2.73;;
46318;SDS011;32042;50.916;2.926;2022-09-09T07:01:12;6.90;;;2.37;;
46318;SDS011;32042;50.916;2.926;2022-09-09T07:03:39;7.93;;;2.33;;
46318;SDS011;32042;50.916;2.926;2022-09-09T07:06:06;6.30;;;2.10;;
46318;SDS011;32042;50.916;2.926;2022-09-09T07:08:32;9.17;;;2.70;;
46318;SDS011;32042;50.916;2.926;2022-09-09T07:11:05;7.47;;;2.40;;
46318;SDS011;32042;50.916;2.926;2022-09-09T07:13:32;5.50;;;2.23;;
46318;SDS011;32042;50.916;2.926;2022-09-09T07:16:05;4.37;;;2.50;;
46318;SDS011;32042;50.916;2.926;2022-09-09T07:18:32;8.57;;;2.70;;
46318;SDS011;32042;50.916;2.926;2022-09-09T07:20:59;9.17;;;2.57;;
46318;SDS011;32042;50.916;2.926;2022-09-09T07:23:27;6.67;;;2.23;;
46318;SDS011;32042;50.916;2.926;2022-09-09T07:25:53;6.32;;;2.13;;
46318;SDS011;32042;50.916;2.926;2022-09-09T07:28:22;6.73;;;2.10;;
46318;SDS011;32042;50.916;2.926;2022-09-09T07:30:58;5.80;;;2.30;;
46318;SDS011;32042;50.916;2.926;2022-09-09T07:33:26;7.23;;;2.10;;
46318;SDS011;32042;50.916;2.926;2022-09-09T07:35:52;11.03;;;1.93;;
46318;SDS011;32042;50.916;2.926;2022-09-09T07:38:19;6.03;;;2.40;;
46318;SDS011;32042;50.916;2.926;2022-09-09T07:40:45;4.83;;;2.10;;
46318;SDS011;32042;50.916;2.926;2022-09-09T07:43:11;9.90;;;2.17;;
46318;SDS011;32042;50.916;2.926;2022-09-09T07:45:37;8.20;;;2.03;;
46318;SDS011;32042;50.916;2.926;2022-09-09T07:48:05;8.33;;;2.03;;
46318;SDS011;32042;50.916;2.926;2022-09-09T07:50:31;6.47;;;2.30;;
46318;SDS011;32042;50.916;2.926;2022-09-09T07:52:56;9.87;;;2.83;;
46318;SDS011;32042;50.916;2.926;2022-09-09T07:55:23;7.27;;;2.27;;
46318;SDS011;32042;50.916;2.926;2022-09-09T07:57:53;5.33;;;2.20;;
46318;SDS011;32042;50.916;2.926;2022-09-09T08:00:20;6.37;;;2.20;;
46318;SDS011;32042;50.916;2.926;2022-09-09T08:02:47;8.37;;;2.20;;
46318;SDS011;32042;50.916;2.926;2022-09-09T08:05:13;6.93;;;1.90;;
46318;SDS011;32042;50.916;2.926;2022-09-09T08:07:40;4.43;;;2.30;;
46318;SDS011;32042;50.916;2.926;2022-09-09T08:10:05;3.87;;;1.90;;
46318;SDS011;32042;50.916;2.926;2022-09-09T08:12:31;6.10;;;2.35;;
46318;SDS011;32042;50.916;2.926;2022-09-09T08:14:57;5.68;;;2.17;;
46318;SDS011;32042;50.916;2.926;2022-09-09T08:17:23;6.65;;;2.33;;
46318;SDS011;32042;50.916;2.926;2022-09-09T08:19:49;4.68;;;1.95;;
46318;SDS011;32042;50.916;2.926;2022-09-09T08:22:14;5.50;;;2.40;;
46318;SDS011;32042;50.916;2.926;2022-09-09T08:24:40;5.28;;;2.15;;
46318;SDS011;32042;50.916;2.926;2022-09-09T08:27:06;4.40;;;2.25;;
46318;SDS011;32042;50.916;2.926;2022-09-09T08:29:31;5.68;;;2.67;;
46318;SDS011;32042;50.916;2.926;2022-09-09T08:31:57;4.93;;;3.03;;
46318;SDS011;32042;50.916;2.926;2022-09-09T08:34:24;6.35;;;3.47;;
46318;SDS011;32042;50.916;2.926;2022-09-09T08:36:52;7.70;;;3.77;;
46318;SDS011;32042;50.916;2.926;2022-09-09T08:39:20;7.68;;;3.13;;
46318;SDS011;32042;50.916;2.926;2022-09-09T08:55:52;5.82;;;1.20;;
46318;SDS011;32042;50.916;2.926;2022-09-09T08:58:31;4.65;;;1.70;;
46318;SDS011;32042;50.916;2.926;2022-09-09T09:11:39;4.15;;;1.45;;
46318;SDS011;32042;50.916;2.926;2022-09-09T09:14:11;2.50;;;1.08;;
46318;SDS011;32042;50.916;2.926;2022-09-09T09:19:31;2.63;;;1.30;;
46318;SDS011;32042;50.916;2.926;2022-09-09T09:27:13;3.70;;;1.30;;
46318;SDS011;32042;50.916;2.926;2022-09-09T09:29:45;2.70;;;1.25;;
46318;SDS011;32042;50.916;2.926;2022-09-09T09:32:15;2.85;;;1.27;;
46318;SDS011;32042;50.916;2.926;2022-09-09T09:34:48;3.28;;;1.05;;
46318;SDS011;32042;50.916;2.926;2022-09-09T09:37:17;4.93;;;1.20;;
46318;SDS011;32042;50.916;2.926;2022-09-09T09:39:51;4.97;;;1.40;;
46318;SDS011;32042;50.916;2.926;2022-09-09T09:42:17;4.90;;;1.10;;
46318;SDS011;32042;50.916;2.926;2022-09-09T09:44:43;4.65;;;1.10;;
46318;SDS011;32042;50.916;2.926;2022-09-09T09:49:38;1.50;;;0.80;;
46318;SDS011;32042;50.916;2.926;2022-09-09T09:52:05;1.55;;;0.93;;
46318;SDS011;32042;50.916;2.926;2022-09-09T09:54:33;2.38;;;0.80;;
46318;SDS011;32042;50.916;2.926;2022-09-09T09:57:13;3.10;;;0.75;;
46318;SDS011;32042;50.916;2.926;2022-09-09T09:59:41;2.00;;;0.93;;
46318;SDS011;32042;50.916;2.926;2022-09-09T10:05:12;1.88;;;0.75;;
46318;SDS011;32042;50.916;2.926;2022-09-09T10:07:43;3.33;;;1.10;;
46318;SDS011;32042;50.916;2.926;2022-09-09T10:10:20;3.63;;;1.15;;
46318;SDS011;32042;50.916;2.926;2022-09-09T10:38:59;2.30;;;1.30;;
46318;SDS011;32042;50.916;2.926;2022-09-09T10:57:00;4.35;;;0.90;;
46318;SDS011;32042;50.916;2.926;2022-09-09T10:59:47;3.40;;;1.23;;
46318;SDS011;32042;50.916;2.926;2022-09-09T11:02:18;5.80;;;1.17;;
46318;SDS011;32042;50.916;2.926;2022-09-09T11:05:01;5.40;;;1.33;;
46318;SDS011;32042;50.916;2.926;2022-09-09T11:07:42;2.40;;;1.08;;
46318;SDS011;32042;50.916;2.926;2022-09-09T11:16:29;2.75;;;1.20;;
46318;SDS011;32042;50.916;2.926;2022-09-09T11:19:11;2.53;;;1.00;;
46318;SDS011;32042;50.916;2.926;2022-09-09T11:21:55;5.47;;;1.40;;
46318;SDS011;32042;50.916;2.926;2022-09-09T11:26:53;3.45;;;1.40;;
46318;SDS011;32042;50.916;2.926;2022-09-09T11:32:59;7.13;;;1.45;;
46318;SDS011;32042;50.916;2.926;2022-09-09T11:40:58;7.80;;;2.17;;
46318;SDS011;32042;50.916;2.926;2022-09-09T11:43:32;9.07;;;2.55;;
46318;SDS011;32042;50.916;2.926;2022-09-09T11:46:05;5.90;;;2.10;;
46318;SDS011;32042;50.916;2.926;2022-09-09T11:48:36;6.18;;;1.88;;
46318;SDS011;32042;50.916;2.926;2022-09-09T11:53:53;8.05;;;1.90;;
46318;SDS011;32042;50.916;2.926;2022-09-09T11:59:03;3.67;;;1.48;;
46318;SDS011;32042;50.916;2.926;2022-09-09T12:01:37;7.75;;;2.05;;
46318;SDS011;32042;50.916;2.926;2022-09-09T12:04:15;3.45;;;2.00;;
46318;SDS011;32042;50.916;2.926;2022-09-09T12:06:52;7.68;;;2.45;;
46318;SDS011;32042;50.916;2.926;2022-09-09T12:12:22;7.60;;;1.88;;
46318;SDS011;32042;50.916;2.926;2022-09-09T12:17:36;3.20;;;2.00;;
46318;SDS011;32042;50.916;2.926;2022-09-09T12:29:04;4.32;;;2.50;;
46318;SDS011;32042;50.916;2.926;2022-09-09T12:31:27;3.72;;;2.20;;
46318;SDS011;32042;50.916;2.926;2022-09-09T12:34:02;4.97;;;2.33;;
46318;SDS011;32042;50.916;2.926;2022-09-09T12:36:36;5.18;;;2.70;;
46318;SDS011;32042;50.916;2.926;2022-09-09T12:39:22;4.22;;;2.83;;
46318;SDS011;32042;50.916;2.926;2022-09-09T12:41:53;6.47;;;3.00;;
46318;SDS011;32042;50.916;2.926;2022-09-09T12:44:21;5.45;;;2.38;;
46318;SDS011;32042;50.916;2.926;2022-09-09T12:46:47;6.90;;;2.40;;
46318;SDS011;32042;50.916;2.926;2022-09-09T12:49:56;3.88;;;1.92;;
46318;SDS011;32042;50.916;2.926;2022-09-09T12:52:06;3.20;;;1.35;;
46318;SDS011;32042;50.916;2.926;2022-09-09T12:54:38;4.60;;;1.30;;
46318;SDS011;32042;50.916;2.926;2022-09-09T12:57:12;2.90;;;1.13;;
46318;SDS011;32042;50.916;2.926;2022-09-09T12:59:40;2.78;;;1.42;;
46318;SDS011;32042;50.916;2.926;2022-09-09T13:02:23;4.70;;;1.33;;
46318;SDS011;32042;50.916;2.926;2022-09-09T13:04:51;2.10;;;1.20;;
46318;SDS011;32042;50.916;2.926;2022-09-09T13:07:20;3.58;;;1.30;;
46318;SDS011;32042;50.916;2.926;2022-09-09T13:09:47;2.03;;;1.08;;
46318;SDS011;32042;50.916;2.926;2022-09-09T13:12:22;2.40;;;1.30;;
46318;SDS011;32042;50.916;2.926;2022-09-09T13:14:51;3.00;;;1.33;;
46318;SDS011;32042;50.916;2.926;2022-09-09T13:17:22;3.22;;;1.48;;
46318;SDS011;32042;50.916;2.926;2022-09-09T13:19:49;2.30;;;1.40;;
46318;SDS011;32042;50.916;2.926;2022-09-09T13:22:36;1.67;;;1.20;;
46318;SDS011;32042;50.916;2.926;2022-09-09T13:27:37;7.40;;;2.00;;
46318;SDS011;32042;50.916;2.926;2022-09-09T13:33:04;2.17;;;1.10;;
46318;SDS011;32042;50.916;2.926;2022-09-09T13:35:45;3.08;;;1.00;;
46318;SDS011;32042;50.916;2.926;2022-09-09T13:38:14;2.65;;;0.82;;
46318;SDS011;32042;50.916;2.926;2022-09-09T13:40:51;1.80;;;0.85;;
46318;SDS011;32042;50.916;2.926;2022-09-09T13:43:22;2.10;;;0.60;;
46318;SDS011;32042;50.916;2.926;2022-09-09T13:46:00;2.90;;;0.80;;
46318;SDS011;32042;50.916;2.926;2022-09-09T13:48:27;1.88;;;0.80;;
46318;SDS011;32042;50.916;2.926;2022-09-09T13:50:56;2.00;;;0.70;;
46318;SDS011;32042;50.916;2.926;2022-09-09T13:53:23;2.15;;;1.00;;
46318;SDS011;32042;50.916;2.926;2022-09-09T13:55:48;1.65;;;1.05;;
46318;SDS011;32042;50.916;2.926;2022-09-09T13:58:16;2.92;;;1.05;;
46318;SDS011;32042;50.916;2.926;2022-09-09T14:00:46;1.65;;;0.90;;
46318;SDS011;32042;50.916;2.926;2022-09-09T14:03:12;2.53;;;0.73;;
46318;SDS011;32042;50.916;2.926;2022-09-09T14:05:38;1.20;;;0.70;;
46318;SDS011;32042;50.916;2.926;2022-09-09T14:08:04;4.63;;;1.00;;
46318;SDS011;32042;50.916;2.926;2022-09-09T14:10:32;3.90;;;1.02;;
46318;SDS011;32042;50.916;2.926;2022-09-09T14:13:00;1.55;;;0.75;;
46318;SDS011;32042;50.916;2.926;2022-09-09T14:15:26;0.95;;;0.80;;
46318;SDS011;32042;50.916;2.926;2022-09-09T14:17:52;3.60;;;0.95;;
46318;SDS011;32042;50.916;2.926;2022-09-09T14:20:17;2.53;;;1.10;;
46318;SDS011;32042;50.916;2.926;2022-09-09T14:22:44;1.77;;;0.90;;
46318;SDS011;32042;50.916;2.926;2022-09-09T14:25:10;2.65;;;1.00;;
46318;SDS011;32042;50.916;2.926;2022-09-09T14:27:38;1.73;;;0.73;;
46318;SDS011;32042;50.916;2.926;2022-09-09T14:30:04;2.17;;;1.10;;
46318;SDS011;32042;50.916;2.926;2022-09-09T14:32:31;1.52;;;0.90;;
46318;SDS011;32042;50.916;2.926;2022-09-09T14:34:56;3.05;;;1.17;;
46318;SDS011;32042;50.916;2.926;2022-09-09T14:37:22;0.98;;;0.98;;
46318;SDS011;32042;50.916;2.926;2022-09-09T14:39:48;3.55;;;1.45;;
46318;SDS011;32042;50.916;2.926;2022-09-09T14:42:15;3.95;;;1.30;;
46318;SDS011;32042;50.916;2.926;2022-09-09T14:44:41;2.25;;;1.23;;
46318;SDS011;32042;50.916;2.926;2022-09-09T14:47:07;4.38;;;1.83;;
46318;SDS011;32042;50.916;2.926;2022-09-09T14:49:37;2.10;;;1.55;;
46318;SDS011;32042;50.916;2.926;2022-09-09T14:52:03;2.67;;;1.65;;
46318;SDS011;32042;50.916;2.926;2022-09-09T14:54:30;3.42;;;2.00;;
46318;SDS011;32042;50.916;2.926;2022-09-09T14:56:57;3.20;;;1.77;;
46318;SDS011;32042;50.916;2.926;2022-09-09T14:59:23;3.85;;;2.00;;
46318;SDS011;32042;50.916;2.926;2022-09-09T15:01:49;3.88;;;1.60;;
46318;SDS011;32042;50.916;2.926;2022-09-09T15:04:14;5.15;;;2.25;;
46318;SDS011;32042;50.916;2.926;2022-09-09T15:06:41;4.00;;;2.30;;
46318;SDS011;32042;50.916;2.926;2022-09-09T15:09:09;5.55;;;2.33;;
46318;SDS011;32042;50.916;2.926;2022-09-09T15:11:36;3.75;;;2.25;;
46318;SDS011;32042;50.916;2.926;2022-09-09T15:14:03;4.90;;;1.83;;
46318;SDS011;32042;50.916;2.926;2022-09-09T15:16:29;3.78;;;2.00;;
46318;SDS011;32042;50.916;2.926;2022-09-09T15:18:57;5.05;;;2.30;;
46318;SDS011;32042;50.916;2.926;2022-09-09T15:21:25;4.60;;;1.60;;
46318;SDS011;32042;50.916;2.926;2022-09-09T15:23:52;4.22;;;2.10;;
46318;SDS011;32042;50.916;2.926;2022-09-09T15:26:18;4.03;;;1.92;;
46318;SDS011;32042;50.916;2.926;2022-09-09T15:28:46;6.22;;;1.85;;
46318;SDS011;32042;50.916;2.926;2022-09-09T15:31:19;5.35;;;2.05;;
46318;SDS011;32042;50.916;2.926;2022-09-09T15:33:53;4.07;;;1.80;;
46318;SDS011;32042;50.916;2.926;2022-09-09T15:36:25;7.78;;;1.70;;
46318;SDS011;32042;50.916;2.926;2022-09-09T15:38:53;2.83;;;1.38;;
46318;SDS011;32042;50.916;2.926;2022-09-09T15:41:20;3.58;;;1.77;;
46318;SDS011;32042;50.916;2.926;2022-09-09T15:43:48;4.20;;;1.50;;
46318;SDS011;32042;50.916;2.926;2022-09-09T15:46:31;1.67;;;1.23;;
46318;SDS011;32042;50.916;2.926;2022-09-09T15:49:22;3.38;;;1.02;;
46318;SDS011;32042;50.916;2.926;2022-09-09T15:51:53;4.57;;;1.20;;
46318;SDS011;32042;50.916;2.926;2022-09-09T15:54:21;2.65;;;0.90;;
46318;SDS011;32042;50.916;2.926;2022-09-09T15:56:53;3.05;;;1.08;;
46318;SDS011;32042;50.916;2.926;2022-09-09T15:59:23;4.85;;;1.10;;
46318;SDS011;32042;50.916;2.926;2022-09-09T16:01:49;4.20;;;1.45;;
46318;SDS011;32042;50.916;2.926;2022-09-09T16:04:18;5.35;;;1.40;;
46318;SDS011;32042;50.916;2.926;2022-09-09T16:06:48;3.70;;;1.27;;
46318;SDS011;32042;50.916;2.926;2022-09-09T16:09:15;5.15;;;1.17;;
46318;SDS011;32042;50.916;2.926;2022-09-09T16:11:41;5.25;;;1.35;;
46318;SDS011;32042;50.916;2.926;2022-09-09T16:14:07;3.55;;;1.10;;
46318;SDS011;32042;50.916;2.926;2022-09-09T16:16:33;6.65;;;1.10;;
46318;SDS011;32042;50.916;2.926;2022-09-09T16:19:01;4.68;;;1.15;;
46318;SDS011;32042;50.916;2.926;2022-09-09T16:21:35;7.47;;;1.52;;
46318;SDS011;32042;50.916;2.926;2022-09-09T16:24:03;3.55;;;1.00;;
46318;SDS011;32042;50.916;2.926;2022-09-09T16:26:30;5.70;;;1.17;;
46318;SDS011;32042;50.916;2.926;2022-09-09T16:28:57;3.33;;;0.90;;
46318;SDS011;32042;50.916;2.926;2022-09-09T16:31:24;5.82;;;1.73;;
46318;SDS011;32042;50.916;2.926;2022-09-09T16:33:51;5.13;;;1.20;;
46318;SDS011;32042;50.916;2.926;2022-09-09T16:36:18;4.00;;;1.38;;
46318;SDS011;32042;50.916;2.926;2022-09-09T16:38:46;9.05;;;1.30;;
46318;SDS011;32042;50.916;2.926;2022-09-09T16:41:12;4.00;;;1.35;;
46318;SDS011;32042;50.916;2.926;2022-09-09T16:43:39;4.45;;;1.35;;
46318;SDS011;32042;50.916;2.926;2022-09-09T16:46:15;4.43;;;1.20;;
46318;SDS011;32042;50.916;2.926;2022-09-09T16:48:43;6.97;;;1.52;;
46318;SDS011;32042;50.916;2.926;2022-09-09T16:51:13;4.53;;;1.25;;
46318;SDS011;32042;50.916;2.926;2022-09-09T16:53:41;4.85;;;1.67;;
46318;SDS011;32042;50.916;2.926;2022-09-09T16:56:09;3.83;;;1.33;;
46318;SDS011;32042;50.916;2.926;2022-09-09T16:58:38;7.75;;;1.65;;
46318;SDS011;32042;50.916;2.926;2022-09-09T17:01:04;7.22;;;1.48;;
46318;SDS011;32042;50.916;2.926;2022-09-09T17:03:30;6.65;;;1.70;;
46318;SDS011;32042;50.916;2.926;2022-09-09T17:05:57;5.70;;;1.75;;
46318;SDS011;32042;50.916;2.926;2022-09-09T17:08:27;6.30;;;1.70;;
46318;SDS011;32042;50.916;2.926;2022-09-09T17:10:54;6.22;;;1.52;;
46318;SDS011;32042;50.916;2.926;2022-09-09T17:13:20;5.35;;;1.42;;
46318;SDS011;32042;50.916;2.926;2022-09-09T17:15:45;7.03;;;1.55;;
46318;SDS011;32042;50.916;2.926;2022-09-09T17:18:11;3.70;;;1.20;;
46318;SDS011;32042;50.916;2.926;2022-09-09T17:20:38;7.22;;;1.40;;
46318;SDS011;32042;50.916;2.926;2022-09-09T17:23:05;3.25;;;0.82;;
46318;SDS011;32042;50.916;2.926;2022-09-09T17:25:35;6.93;;;1.45;;
46318;SDS011;32042;50.916;2.926;2022-09-09T17:28:01;4.28;;;0.95;;
46318;SDS011;32042;50.916;2.926;2022-09-09T17:30:34;6.63;;;1.60;;
46318;SDS011;32042;50.916;2.926;2022-09-09T17:33:01;7.13;;;1.40;;
46318;SDS011;32042;50.916;2.926;2022-09-09T17:35:28;5.45;;;1.23;;
46318;SDS011;32042;50.916;2.926;2022-09-09T17:37:55;8.23;;;1.55;;
46318;SDS011;32042;50.916;2.926;2022-09-09T17:40:21;8.45;;;1.60;;
46318;SDS011;32042;50.916;2.926;2022-09-09T17:42:47;12.00;;;1.25;;
46318;SDS011;32042;50.916;2.926;2022-09-09T17:45:13;9.40;;;1.67;;
46318;SDS011;32042;50.916;2.926;2022-09-09T17:47:40;9.15;;;1.27;;
46318;SDS011;32042;50.916;2.926;2022-09-09T17:50:07;7.20;;;1.60;;
46318;SDS011;32042;50.916;2.926;2022-09-09T17:52:35;7.45;;;1.33;;
46318;SDS011;32042;50.916;2.926;2022-09-09T17:55:02;5.97;;;1.10;;